sensor_id;sensor_type;location;lat;lon;timestamp;pressure;altitude;pressure_sealevel;temperature;humidity
32081;BME280;18593;51.426;7.030;2023-05-20T00:00:48;101261.66;;;14.27;50.78
32081;BME280;18593;51.426;7.030;2023-05-20T00:03:15;101260.22;;;14.24;50.82
32081;BME280;18593;51.426;7.030;2023-05-20T00:05:42;101261.47;;;14.22;50.93
32081;BME280;18593;51.426;7.030;2023-05-20T00:08:10;101256.53;;;14.18;51.08
32081;BME280;18593;51.426;7.030;2023-05-20T00:10:38;101258.81;;;14.15;51.27
32081;BME280;18593;51.426;7.030;2023-05-20T00:13:06;101263.59;;;14.13;51.31
32081;BME280;18593;51.426;7.030;2023-05-20T00:15:35;101264.84;;;14.10;51.20
32081;BME280;18593;51.426;7.030;2023-05-20T00:18:03;101259.09;;;14.07;51.35
32081;BME280;18593;51.426;7.030;2023-05-20T00:20:31;101260.31;;;14.04;51.48
32081;BME280;18593;51.426;7.030;2023-05-20T00:22:58;101257.03;;;14.02;51.54
32081;BME280;18593;51.426;7.030;2023-05-20T00:25:25;101259.94;;;14.01;51.41
32081;BME280;18593;51.426;7.030;2023-05-20T00:27:53;101265.72;;;13.98;51.63
32081;BME280;18593;51.426;7.030;2023-05-20T00:30:20;101259.75;;;13.96;51.73
32081;BME280;18593;51.426;7.030;2023-05-20T00:32:48;101257.50;;;13.93;51.86
32081;BME280;18593;51.426;7.030;2023-05-20T00:35:16;101264.72;;;13.92;51.96
32081;BME280;18593;51.426;7.030;2023-05-20T00:37:43;101267.59;;;13.90;52.14
32081;BME280;18593;51.426;7.030;2023-05-20T00:40:11;101265.38;;;13.87;52.24
32081;BME280;18593;51.426;7.030;2023-05-20T00:42:38;101268.28;;;13.86;52.39
32081;BME280;18593;51.426;7.030;2023-05-20T00:45:07;101263.91;;;13.85;52.19
32081;BME280;18593;51.426;7.030;2023-05-20T00:47:35;101259.59;;;13.84;52.26
32081;BME280;18593;51.426;7.030;2023-05-20T00:50:04;101261.69;;;13.82;52.46
32081;BME280;18593;51.426;7.030;2023-05-20T00:52:32;101257.56;;;13.79;52.49
32081;BME280;18593;51.426;7.030;2023-05-20T00:55:00;101255.91;;;13.78;52.49
32081;BME280;18593;51.426;7.030;2023-05-20T00:57:27;101251.78;;;13.76;52.78
32081;BME280;18593;51.426;7.030;2023-05-20T00:59:55;101257.59;;;13.73;52.67
32081;BME280;18593;51.426;7.030;2023-05-20T01:02:23;101244.38;;;13.71;52.77
32081;BME280;18593;51.426;7.030;2023-05-20T01:04:50;101247.06;;;13.71;52.56
32081;BME280;18593;51.426;7.030;2023-05-20T01:07:19;101245.22;;;13.72;52.41
32081;BME280;18593;51.426;7.030;2023-05-20T01:09:47;101243.16;;;13.74;52.78
32081;BME280;18593;51.426;7.030;2023-05-20T01:12:20;101239.66;;;13.73;52.61
32081;BME280;18593;51.426;7.030;2023-05-20T01:14:50;101244.78;;;13.75;52.91
32081;BME280;18593;51.426;7.030;2023-05-20T01:17:22;101243.75;;;13.76;52.91
32081;BME280;18593;51.426;7.030;2023-05-20T01:19:54;101247.69;;;13.73;53.05
32081;BME280;18593;51.426;7.030;2023-05-20T01:22:26;101242.75;;;13.70;52.99
32081;BME280;18593;51.426;7.030;2023-05-20T01:24:53;101240.88;;;13.71;53.00
32081;BME280;18593;51.426;7.030;2023-05-20T01:27:22;101246.69;;;13.68;53.03
32081;BME280;18593;51.426;7.030;2023-05-20T01:29:51;101243.19;;;13.67;52.86
32081;BME280;18593;51.426;7.030;2023-05-20T01:32:22;101243.19;;;13.67;53.23
32081;BME280;18593;51.426;7.030;2023-05-20T01:34:51;101245.25;;;13.65;53.16
32081;BME280;18593;51.426;7.030;2023-05-20T01:37:21;101242.78;;;13.63;53.00
32081;BME280;18593;51.426;7.030;2023-05-20T01:39:52;101227.94;;;13.61;53.06
32081;BME280;18593;51.426;7.030;2023-05-20T01:42:21;101235.16;;;13.60;53.25
32081;BME280;18593;51.426;7.030;2023-05-20T01:44:50;101232.91;;;13.57;53.27
32081;BME280;18593;51.426;7.030;2023-05-20T01:47:17;101233.09;;;13.56;53.33
32081;BME280;18593;51.426;7.030;2023-05-20T01:49:44;101233.56;;;13.53;53.28
32081;BME280;18593;51.426;7.030;2023-05-20T01:52:12;101228.59;;;13.50;53.45
32081;BME280;18593;51.426;7.030;2023-05-20T01:54:40;101236.88;;;13.48;53.52
32081;BME280;18593;51.426;7.030;2023-05-20T01:57:09;101230.06;;;13.46;53.80
32081;BME280;18593;51.426;7.030;2023-05-20T01:59:36;101233.19;;;13.43;53.71
32081;BME280;18593;51.426;7.030;2023-05-20T02:02:04;101228.81;;;13.42;53.75
32081;BME280;18593;51.426;7.030;2023-05-20T02:04:31;101223.91;;;13.38;53.59
32081;BME280;18593;51.426;7.030;2023-05-20T02:06:59;101222.47;;;13.36;53.73
32081;BME280;18593;51.426;7.030;2023-05-20T02:09:27;101221.03;;;13.33;53.94
32081;BME280;18593;51.426;7.030;2023-05-20T02:11:54;101217.94;;;13.30;54.13
32081;BME280;18593;51.426;7.030;2023-05-20T02:14:23;101226.22;;;13.28;54.01
32081;BME280;18593;51.426;7.030;2023-05-20T02:16:50;101228.47;;;13.25;54.23
32081;BME280;18593;51.426;7.030;2023-05-20T02:19:18;101237.75;;;13.22;54.18
32081;BME280;18593;51.426;7.030;2023-05-20T02:21:48;101234.44;;;13.20;54.18
32081;BME280;18593;51.426;7.030;2023-05-20T02:24:16;101237.50;;;13.17;54.31
32081;BME280;18593;51.426;7.030;2023-05-20T02:26:45;101242.50;;;13.13;54.43
32081;BME280;18593;51.426;7.030;2023-05-20T02:29:14;101236.50;;;13.11;54.54
32081;BME280;18593;51.426;7.030;2023-05-20T02:31:43;101233.44;;;13.08;54.49
32081;BME280;18593;51.426;7.030;2023-05-20T02:34:10;101236.94;;;13.08;54.65
32081;BME280;18593;51.426;7.030;2023-05-20T02:36:38;101233.84;;;13.05;54.80
32081;BME280;18593;51.426;7.030;2023-05-20T02:39:05;101237.75;;;13.02;54.76
32081;BME280;18593;51.426;7.030;2023-05-20T02:41:33;101226.22;;;13.02;54.73
32081;BME280;18593;51.426;7.030;2023-05-20T02:44:00;101232.63;;;13.01;54.66
32081;BME280;18593;51.426;7.030;2023-05-20T02:46:27;101228.91;;;13.02;54.38
32081;BME280;18593;51.426;7.030;2023-05-20T02:48:56;101230.34;;;13.04;54.41
32081;BME280;18593;51.426;7.030;2023-05-20T02:51:24;101219.63;;;13.04;54.34
32081;BME280;18593;51.426;7.030;2023-05-20T02:53:51;101221.50;;;13.04;54.57
32081;BME280;18593;51.426;7.030;2023-05-20T02:56:19;101231.16;;;13.05;54.60
32081;BME280;18593;51.426;7.030;2023-05-20T02:58:47;101222.09;;;13.06;54.32
32081;BME280;18593;51.426;7.030;2023-05-20T03:01:14;101222.72;;;13.08;54.05
32081;BME280;18593;51.426;7.030;2023-05-20T03:03:41;101222.50;;;13.09;54.54
32081;BME280;18593;51.426;7.030;2023-05-20T03:06:10;101223.09;;;13.11;54.73
32081;BME280;18593;51.426;7.030;2023-05-20T03:08:38;101222.91;;;13.13;54.48
32081;BME280;18593;51.426;7.030;2023-05-20T03:11:07;101226.59;;;13.12;54.66
32081;BME280;18593;51.426;7.030;2023-05-20T03:13:34;101217.97;;;13.10;54.56
32081;BME280;18593;51.426;7.030;2023-05-20T03:16:02;101218.19;;;13.08;54.77
32081;BME280;18593;51.426;7.030;2023-05-20T03:18:29;101223.72;;;13.07;54.72
32081;BME280;18593;51.426;7.030;2023-05-20T03:20:57;101221.88;;;13.07;54.75
32081;BME280;18593;51.426;7.030;2023-05-20T03:23:25;101217.56;;;13.06;54.92
32081;BME280;18593;51.426;7.030;2023-05-20T03:25:52;101222.91;;;13.06;54.72
32081;BME280;18593;51.426;7.030;2023-05-20T03:28:20;101220.47;;;13.05;54.43
32081;BME280;18593;51.426;7.030;2023-05-20T03:30:47;101217.56;;;13.06;54.25
32081;BME280;18593;51.426;7.030;2023-05-20T03:33:16;101213.03;;;13.07;54.63
32081;BME280;18593;51.426;7.030;2023-05-20T03:35:43;101214.69;;;13.08;54.64
32081;BME280;18593;51.426;7.030;2023-05-20T03:38:10;101213.66;;;13.09;54.59
32081;BME280;18593;51.426;7.030;2023-05-20T03:40:40;101203.53;;;13.11;54.46
32081;BME280;18593;51.426;7.030;2023-05-20T03:43:07;101210.53;;;13.12;54.45
32081;BME280;18593;51.426;7.030;2023-05-20T03:45:34;101203.13;;;13.14;54.54
32081;BME280;18593;51.426;7.030;2023-05-20T03:48:05;101198.38;;;13.16;54.10
32081;BME280;18593;51.426;7.030;2023-05-20T03:50:34;101196.75;;;13.15;54.20
32081;BME280;18593;51.426;7.030;2023-05-20T03:53:01;101196.31;;;13.18;54.03
32081;BME280;18593;51.426;7.030;2023-05-20T03:55:35;101197.97;;;13.19;54.08
32081;BME280;18593;51.426;7.030;2023-05-20T03:58:05;101196.94;;;13.20;54.28
32081;BME280;18593;51.426;7.030;2023-05-20T04:00:33;101190.53;;;13.21;54.11
32081;BME280;18593;51.426;7.030;2023-05-20T04:03:00;101199.22;;;13.23;54.16
32081;BME280;18593;51.426;7.030;2023-05-20T04:05:28;101191.78;;;13.25;54.21
32081;BME280;18593;51.426;7.030;2023-05-20T04:07:55;101196.09;;;13.26;53.92
32081;BME280;18593;51.426;7.030;2023-05-20T04:10:24;101188.72;;;13.28;54.30
32081;BME280;18593;51.426;7.030;2023-05-20T04:12:51;101197.34;;;13.30;54.17
32081;BME280;18593;51.426;7.030;2023-05-20T04:15:21;101195.47;;;13.31;54.40
32081;BME280;18593;51.426;7.030;2023-05-20T04:17:59;101202.06;;;13.35;54.19
32081;BME280;18593;51.426;7.030;2023-05-20T04:20:26;101200.84;;;13.37;54.11
32081;BME280;18593;51.426;7.030;2023-05-20T04:22:56;101195.84;;;13.41;54.55
32081;BME280;18593;51.426;7.030;2023-05-20T04:25:23;101202.88;;;13.42;54.00
32081;BME280;18593;51.426;7.030;2023-05-20T04:27:52;101199.97;;;13.44;53.95
32081;BME280;18593;51.426;7.030;2023-05-20T04:30:21;101196.03;;;13.46;53.97
32081;BME280;18593;51.426;7.030;2023-05-20T04:32:49;101198.53;;;13.48;54.14
32081;BME280;18593;51.426;7.030;2023-05-20T04:35:17;101201.59;;;13.51;54.20
32081;BME280;18593;51.426;7.030;2023-05-20T04:37:45;101198.72;;;13.53;53.95
32081;BME280;18593;51.426;7.030;2023-05-20T04:40:14;101200.94;;;13.56;54.03
32081;BME280;18593;51.426;7.030;2023-05-20T04:42:42;101206.13;;;13.57;54.07
32081;BME280;18593;51.426;7.030;2023-05-20T04:45:10;101202.81;;;13.62;53.98
32081;BME280;18593;51.426;7.030;2023-05-20T04:47:41;101208.13;;;13.69;53.96
32081;BME280;18593;51.426;7.030;2023-05-20T04:50:10;101210.56;;;13.77;54.21
32081;BME280;18593;51.426;7.030;2023-05-20T04:52:40;101214.03;;;13.84;53.73
32081;BME280;18593;51.426;7.030;2023-05-20T04:55:09;101214.16;;;13.96;53.35
32081;BME280;18593;51.426;7.030;2023-05-20T04:57:37;101208.13;;;14.07;53.65
32081;BME280;18593;51.426;7.030;2023-05-20T05:00:08;101208.03;;;14.20;53.21
32081;BME280;18593;51.426;7.030;2023-05-20T05:02:36;101206.50;;;14.31;52.77
32081;BME280;18593;51.426;7.030;2023-05-20T05:05:06;101203.50;;;14.46;52.87
32081;BME280;18593;51.426;7.030;2023-05-20T05:07:33;101200.97;;;14.57;52.40
32081;BME280;18593;51.426;7.030;2023-05-20T05:10:00;101197.34;;;14.70;51.94
32081;BME280;18593;51.426;7.030;2023-05-20T05:12:29;101207.50;;;14.86;51.73
32081;BME280;18593;51.426;7.030;2023-05-20T05:14:58;101197.31;;;14.95;51.34
32081;BME280;18593;51.426;7.030;2023-05-20T05:17:26;101195.75;;;15.06;50.84
32081;BME280;18593;51.426;7.030;2023-05-20T05:19:55;101187.16;;;15.15;50.85
32081;BME280;18593;51.426;7.030;2023-05-20T05:22:24;101182.91;;;15.26;50.47
32081;BME280;18593;51.426;7.030;2023-05-20T05:24:54;101187.56;;;15.37;50.23
32081;BME280;18593;51.426;7.030;2023-05-20T05:27:23;101194.63;;;15.50;50.30
32081;BME280;18593;51.426;7.030;2023-05-20T05:29:51;101183.19;;;15.55;49.48
32081;BME280;18593;51.426;7.030;2023-05-20T05:32:19;101174.22;;;15.61;49.67
32081;BME280;18593;51.426;7.030;2023-05-20T05:34:46;101176.75;;;15.74;49.87
32081;BME280;18593;51.426;7.030;2023-05-20T05:37:13;101174.34;;;15.84;48.95
32081;BME280;18593;51.426;7.030;2023-05-20T05:39:42;101183.03;;;15.86;49.04
32081;BME280;18593;51.426;7.030;2023-05-20T05:42:10;101177.91;;;15.96;49.22
32081;BME280;18593;51.426;7.030;2023-05-20T05:44:37;101177.34;;;16.06;49.04
32081;BME280;18593;51.426;7.030;2023-05-20T05:47:06;101175.97;;;16.15;48.81
32081;BME280;18593;51.426;7.030;2023-05-20T05:49:34;101181.69;;;16.19;48.85
32081;BME280;18593;51.426;7.030;2023-05-20T05:52:02;101185.69;;;16.28;48.77
32081;BME280;18593;51.426;7.030;2023-05-20T05:54:29;101173.53;;;16.37;48.82
32081;BME280;18593;51.426;7.030;2023-05-20T05:56:58;101162.88;;;16.42;48.12
32081;BME280;18593;51.426;7.030;2023-05-20T05:59:27;101168.75;;;16.51;48.26
32081;BME280;18593;51.426;7.030;2023-05-20T06:01:54;101169.81;;;16.62;48.56
32081;BME280;18593;51.426;7.030;2023-05-20T06:04:22;101168.41;;;16.71;48.09
32081;BME280;18593;51.426;7.030;2023-05-20T06:06:51;101167.50;;;16.77;47.93
32081;BME280;18593;51.426;7.030;2023-05-20T06:09:19;101160.31;;;16.71;47.41
32081;BME280;18593;51.426;7.030;2023-05-20T06:11:46;101166.88;;;16.63;47.34
32081;BME280;18593;51.426;7.030;2023-05-20T06:14:15;101180.00;;;16.60;47.72
32081;BME280;18593;51.426;7.030;2023-05-20T06:16:42;101166.88;;;16.52;47.71
32081;BME280;18593;51.426;7.030;2023-05-20T06:19:11;101163.63;;;16.50;47.64
32081;BME280;18593;51.426;7.030;2023-05-20T06:21:38;101167.34;;;16.48;48.15
32081;BME280;18593;51.426;7.030;2023-05-20T06:24:06;101156.00;;;16.46;48.06
32081;BME280;18593;51.426;7.030;2023-05-20T06:26:35;101165.25;;;16.51;48.32
32081;BME280;18593;51.426;7.030;2023-05-20T06:29:03;101147.22;;;16.51;48.06
32081;BME280;18593;51.426;7.030;2023-05-20T06:31:32;101156.47;;;16.55;48.45
32081;BME280;18593;51.426;7.030;2023-05-20T06:33:59;101154.72;;;16.61;48.57
32081;BME280;18593;51.426;7.030;2023-05-20T06:36:26;101150.94;;;16.62;48.53
32081;BME280;18593;51.426;7.030;2023-05-20T06:38:54;101159.03;;;16.62;48.34
32081;BME280;18593;51.426;7.030;2023-05-20T06:41:21;101154.72;;;16.61;48.62
32081;BME280;18593;51.426;7.030;2023-05-20T06:43:51;101150.50;;;16.65;48.80
32081;BME280;18593;51.426;7.030;2023-05-20T06:46:38;101146.28;;;16.69;48.29
32081;BME280;18593;51.426;7.030;2023-05-20T06:49:10;101154.00;;;16.65;47.71
32081;BME280;18593;51.426;7.030;2023-05-20T06:51:37;101157.75;;;16.53;47.79
32081;BME280;18593;51.426;7.030;2023-05-20T06:54:04;101151.41;;;16.47;48.39
32081;BME280;18593;51.426;7.030;2023-05-20T06:56:32;101152.13;;;16.42;48.28
32081;BME280;18593;51.426;7.030;2023-05-20T06:58:59;101148.84;;;16.40;48.48
32081;BME280;18593;51.426;7.030;2023-05-20T07:01:27;101153.63;;;16.38;50.06
32081;BME280;18593;51.426;7.030;2023-05-20T07:03:56;101144.50;;;16.39;50.16
32081;BME280;18593;51.426;7.030;2023-05-20T07:06:24;101144.38;;;16.34;49.10
32081;BME280;18593;51.426;7.030;2023-05-20T07:08:51;101140.06;;;16.33;49.56
32081;BME280;18593;51.426;7.030;2023-05-20T07:11:19;101133.97;;;16.38;49.59
32081;BME280;18593;51.426;7.030;2023-05-20T07:13:46;101139.00;;;16.46;49.63
32081;BME280;18593;51.426;7.030;2023-05-20T07:16:13;101136.44;;;16.51;48.93
32081;BME280;18593;51.426;7.030;2023-05-20T07:18:45;101138.66;;;16.42;48.75
32081;BME280;18593;51.426;7.030;2023-05-20T07:21:13;101152.69;;;16.33;48.78
32081;BME280;18593;51.426;7.030;2023-05-20T07:23:57;101129.16;;;16.28;49.13
32081;BME280;18593;51.426;7.030;2023-05-20T07:26:25;101138.28;;;16.27;49.35
32081;BME280;18593;51.426;7.030;2023-05-20T07:28:52;101137.34;;;16.21;49.20
32081;BME280;18593;51.426;7.030;2023-05-20T07:31:19;101126.22;;;16.18;49.28
32081;BME280;18593;51.426;7.030;2023-05-20T07:33:47;101126.69;;;16.15;49.42
32081;BME280;18593;51.426;7.030;2023-05-20T07:36:16;101119.66;;;16.14;49.51
32081;BME280;18593;51.426;7.030;2023-05-20T07:38:47;101105.38;;;16.13;49.96
32081;BME280;18593;51.426;7.030;2023-05-20T07:41:15;101116.75;;;16.15;50.01
32081;BME280;18593;51.426;7.030;2023-05-20T07:43:42;101108.44;;;16.17;50.27
32081;BME280;18593;51.426;7.030;2023-05-20T07:46:10;101121.28;;;16.15;49.74
32081;BME280;18593;51.426;7.030;2023-05-20T07:48:38;101111.00;;;16.12;50.05
32081;BME280;18593;51.426;7.030;2023-05-20T07:51:05;101118.03;;;16.13;50.05
32081;BME280;18593;51.426;7.030;2023-05-20T07:53:34;101111.84;;;16.12;50.04
32081;BME280;18593;51.426;7.030;2023-05-20T07:56:02;101117.22;;;16.12;50.03
32081;BME280;18593;51.426;7.030;2023-05-20T07:58:30;101117.47;;;16.11;50.16
32081;BME280;18593;51.426;7.030;2023-05-20T08:00:58;101129.50;;;16.08;50.40
32081;BME280;18593;51.426;7.030;2023-05-20T08:03:25;101118.72;;;16.08;50.34
32081;BME280;18593;51.426;7.030;2023-05-20T08:06:04;101114.16;;;16.09;50.39
32081;BME280;18593;51.426;7.030;2023-05-20T08:08:31;101114.53;;;16.12;50.72
32081;BME280;18593;51.426;7.030;2023-05-20T08:11:07;101118.03;;;16.13;50.52
32081;BME280;18593;51.426;7.030;2023-05-20T08:13:34;101124.09;;;16.08;50.35
32081;BME280;18593;51.426;7.030;2023-05-20T08:16:03;101118.34;;;16.05;50.48
32081;BME280;18593;51.426;7.030;2023-05-20T08:18:31;101097.66;;;16.05;50.59
32081;BME280;18593;51.426;7.030;2023-05-20T08:20:59;101109.59;;;16.09;50.85
32081;BME280;18593;51.426;7.030;2023-05-20T08:23:26;101101.44;;;16.16;50.85
32081;BME280;18593;51.426;7.030;2023-05-20T08:25:53;101106.13;;;16.20;50.95
32081;BME280;18593;51.426;7.030;2023-05-20T08:28:24;101100.25;;;16.23;50.72
32081;BME280;18593;51.426;7.030;2023-05-20T08:30:52;101104.94;;;16.28;51.01
32081;BME280;18593;51.426;7.030;2023-05-20T08:33:19;101107.63;;;16.28;50.76
32081;BME280;18593;51.426;7.030;2023-05-20T08:35:47;101101.19;;;16.29;50.84
32081;BME280;18593;51.426;7.030;2023-05-20T08:38:15;101105.06;;;16.33;50.89
32081;BME280;18593;51.426;7.030;2023-05-20T08:40:42;101102.16;;;16.35;51.12
32081;BME280;18593;51.426;7.030;2023-05-20T08:43:09;101094.06;;;16.35;51.02
32081;BME280;18593;51.426;7.030;2023-05-20T08:45:38;101108.34;;;16.35;50.71
32081;BME280;18593;51.426;7.030;2023-05-20T08:48:10;101096.97;;;16.33;50.48
32081;BME280;18593;51.426;7.030;2023-05-20T08:50:38;101101.53;;;16.33;50.71
32081;BME280;18593;51.426;7.030;2023-05-20T08:53:06;101102.38;;;16.33;50.78
32081;BME280;18593;51.426;7.030;2023-05-20T08:55:41;101089.72;;;16.34;50.58
32081;BME280;18593;51.426;7.030;2023-05-20T08:58:09;101092.66;;;16.32;50.57
32081;BME280;18593;51.426;7.030;2023-05-20T09:00:37;101100.72;;;16.32;50.85
32081;BME280;18593;51.426;7.030;2023-05-20T09:03:07;101096.53;;;16.36;50.57
32081;BME280;18593;51.426;7.030;2023-05-20T09:05:34;101103.91;;;16.41;50.96
32081;BME280;18593;51.426;7.030;2023-05-20T09:08:06;101098.03;;;16.44;50.64
32081;BME280;18593;51.426;7.030;2023-05-20T09:10:33;101108.59;;;16.45;50.60
32081;BME280;18593;51.426;7.030;2023-05-20T09:13:01;101102.59;;;16.43;50.30
32081;BME280;18593;51.426;7.030;2023-05-20T09:15:29;101111.72;;;16.42;50.48
32081;BME280;18593;51.426;7.030;2023-05-20T09:18:01;101100.38;;;16.40;50.68
32081;BME280;18593;51.426;7.030;2023-05-20T09:20:28;101108.47;;;16.40;50.54
32081;BME280;18593;51.426;7.030;2023-05-20T09:23:00;101098.97;;;16.38;50.88
32081;BME280;18593;51.426;7.030;2023-05-20T09:25:27;101107.66;;;16.40;50.67
32081;BME280;18593;51.426;7.030;2023-05-20T09:27:55;101104.34;;;16.38;50.66
32081;BME280;18593;51.426;7.030;2023-05-20T09:30:23;101098.41;;;16.36;50.58
32081;BME280;18593;51.426;7.030;2023-05-20T09:32:53;101102.16;;;16.35;51.05
32081;BME280;18593;51.426;7.030;2023-05-20T09:35:23;101113.94;;;16.34;51.09
32081;BME280;18593;51.426;7.030;2023-05-20T09:37:52;101100.84;;;16.37;51.11
32081;BME280;18593;51.426;7.030;2023-05-20T09:40:23;101096.88;;;16.40;51.44
32081;BME280;18593;51.426;7.030;2023-05-20T09:42:53;101106.22;;;16.37;51.11
32081;BME280;18593;51.426;7.030;2023-05-20T09:45:22;101107.03;;;16.38;51.20
32081;BME280;18593;51.426;7.030;2023-05-20T09:47:50;101104.72;;;16.41;51.20
32081;BME280;18593;51.426;7.030;2023-05-20T09:50:18;101113.59;;;16.42;51.03
32081;BME280;18593;51.426;7.030;2023-05-20T09:52:50;101092.31;;;16.40;51.05
32081;BME280;18593;51.426;7.030;2023-05-20T09:55:18;101105.28;;;16.43;51.85
32081;BME280;18593;51.426;7.030;2023-05-20T09:57:46;101112.31;;;16.44;51.07
32081;BME280;18593;51.426;7.030;2023-05-20T10:00:15;101095.56;;;16.42;51.21
32081;BME280;18593;51.426;7.030;2023-05-20T10:02:49;101102.59;;;16.43;51.13
32081;BME280;18593;51.426;7.030;2023-05-20T10:05:20;101095.56;;;16.42;51.11
32081;BME280;18593;51.426;7.030;2023-05-20T10:08:27;101097.44;;;16.42;51.14
32081;BME280;18593;51.426;7.030;2023-05-20T10:11:08;101084.25;;;16.40;51.23
32081;BME280;18593;51.426;7.030;2023-05-20T10:14:05;101095.56;;;16.42;51.70
32081;BME280;18593;51.426;7.030;2023-05-20T10:16:43;101097.00;;;16.45;51.60
32081;BME280;18593;51.426;7.030;2023-05-20T10:19:25;101090.56;;;16.46;51.81
32081;BME280;18593;51.426;7.030;2023-05-20T10:21:58;101075.47;;;16.45;51.12
32081;BME280;18593;51.426;7.030;2023-05-20T10:24:32;101066.31;;;16.46;51.69
32081;BME280;18593;51.426;7.030;2023-05-20T10:27:04;101078.97;;;16.45;51.47
32081;BME280;18593;51.426;7.030;2023-05-20T10:29:42;101087.25;;;16.44;51.19
32081;BME280;18593;51.426;7.030;2023-05-20T10:32:10;101092.44;;;16.45;51.71
32081;BME280;18593;51.426;7.030;2023-05-20T10:34:49;101075.78;;;16.48;51.63
32081;BME280;18593;51.426;7.030;2023-05-20T10:37:23;101089.59;;;16.52;51.46
32081;BME280;18593;51.426;7.030;2023-05-20T10:40:06;101081.78;;;16.51;51.54
32081;BME280;18593;51.426;7.030;2023-05-20T10:42:54;101078.59;;;16.54;51.74
32081;BME280;18593;51.426;7.030;2023-05-20T10:45:28;101078.38;;;16.55;51.51
32081;BME280;18593;51.426;7.030;2023-05-20T10:47:58;101068.88;;;16.53;51.58
32081;BME280;18593;51.426;7.030;2023-05-20T10:50:26;101070.28;;;16.55;52.23
32081;BME280;18593;51.426;7.030;2023-05-20T10:53:02;101080.38;;;16.60;52.41
32081;BME280;18593;51.426;7.030;2023-05-20T10:55:36;101067.00;;;16.65;52.18
32081;BME280;18593;51.426;7.030;2023-05-20T10:58:05;101061.72;;;16.70;52.82
32081;BME280;18593;51.426;7.030;2023-05-20T11:00:34;101059.16;;;16.75;52.29
32081;BME280;18593;51.426;7.030;2023-05-20T11:03:03;101047.69;;;16.80;52.50
32081;BME280;18593;51.426;7.030;2023-05-20T11:05:30;101062.88;;;16.86;52.41
32081;BME280;18593;51.426;7.030;2023-05-20T11:08:01;101055.63;;;16.86;52.06
32081;BME280;18593;51.426;7.030;2023-05-20T11:10:29;101058.31;;;16.86;51.81
32081;BME280;18593;51.426;7.030;2023-05-20T11:12:58;101065.34;;;16.87;52.02
32081;BME280;18593;51.426;7.030;2023-05-20T11:15:27;101048.09;;;16.88;52.00
32081;BME280;18593;51.426;7.030;2023-05-20T11:17:59;101058.16;;;16.93;51.98
32081;BME280;18593;51.426;7.030;2023-05-20T11:20:26;101059.00;;;16.93;51.89
32081;BME280;18593;51.426;7.030;2023-05-20T11:22:54;101042.59;;;16.95;52.19
32081;BME280;18593;51.426;7.030;2023-05-20T11:25:22;101049.16;;;16.99;52.18
32081;BME280;18593;51.426;7.030;2023-05-20T11:27:50;101050.53;;;17.02;52.06
32081;BME280;18593;51.426;7.030;2023-05-20T11:30:19;101037.06;;;17.02;51.78
32081;BME280;18593;51.426;7.030;2023-05-20T11:32:57;101048.19;;;17.05;52.27
32081;BME280;18593;51.426;7.030;2023-05-20T11:35:25;101044.53;;;17.11;53.23
32081;BME280;18593;51.426;7.030;2023-05-20T11:37:59;101039.22;;;17.16;52.45
32081;BME280;18593;51.426;7.030;2023-05-20T11:40:28;101050.09;;;17.21;52.64
32081;BME280;18593;51.426;7.030;2023-05-20T11:42:58;101029.44;;;17.27;52.43
32081;BME280;18593;51.426;7.030;2023-05-20T11:45:39;101028.72;;;17.32;52.01
32081;BME280;18593;51.426;7.030;2023-05-20T11:48:07;101016.19;;;17.37;52.04
32081;BME280;18593;51.426;7.030;2023-05-20T11:50:37;101009.81;;;17.43;52.36
32081;BME280;18593;51.426;7.030;2023-05-20T11:53:07;101009.63;;;17.50;52.81
32081;BME280;18593;51.426;7.030;2023-05-20T11:55:44;100995.41;;;17.55;52.02
32081;BME280;18593;51.426;7.030;2023-05-20T11:58:14;101000.34;;;17.58;51.76
32081;BME280;18593;51.426;7.030;2023-05-20T12:00:43;100980.94;;;17.61;51.92
32081;BME280;18593;51.426;7.030;2023-05-20T12:03:11;100984.06;;;17.69;51.99
32081;BME280;18593;51.426;7.030;2023-05-20T12:05:38;100975.00;;;17.75;53.01
32081;BME280;18593;51.426;7.030;2023-05-20T12:08:06;100969.94;;;17.79;52.03
32081;BME280;18593;51.426;7.030;2023-05-20T12:10:34;100967.81;;;17.81;51.94
32081;BME280;18593;51.426;7.030;2023-05-20T12:13:03;100972.16;;;17.82;51.51
32081;BME280;18593;51.426;7.030;2023-05-20T12:15:34;100966.03;;;17.87;51.63
32081;BME280;18593;51.426;7.030;2023-05-20T12:18:03;100977.44;;;17.94;51.94
32081;BME280;18593;51.426;7.030;2023-05-20T12:20:30;100958.63;;;17.99;51.45
32081;BME280;18593;51.426;7.030;2023-05-20T12:22:59;100958.97;;;18.02;52.00
32081;BME280;18593;51.426;7.030;2023-05-20T12:25:26;100956.31;;;18.08;51.43
32081;BME280;18593;51.426;7.030;2023-05-20T12:27:54;100953.38;;;18.09;51.04
32081;BME280;18593;51.426;7.030;2023-05-20T12:30:22;100956.41;;;18.13;51.64
32081;BME280;18593;51.426;7.030;2023-05-20T12:32:50;100956.47;;;18.18;50.91
32081;BME280;18593;51.426;7.030;2023-05-20T12:35:24;100955.38;;;18.19;50.87
32081;BME280;18593;51.426;7.030;2023-05-20T12:37:53;100950.56;;;18.21;50.18
32081;BME280;18593;51.426;7.030;2023-05-20T12:40:20;100960.03;;;18.23;50.47
32081;BME280;18593;51.426;7.030;2023-05-20T12:42:47;100956.59;;;18.28;50.45
32081;BME280;18593;51.426;7.030;2023-05-20T12:45:14;100954.22;;;18.32;50.01
32081;BME280;18593;51.426;7.030;2023-05-20T12:47:41;100946.66;;;18.34;50.41
32081;BME280;18593;51.426;7.030;2023-05-20T12:50:09;100962.66;;;18.35;49.67
32081;BME280;18593;51.426;7.030;2023-05-20T12:52:38;100946.94;;;18.32;49.30
32081;BME280;18593;51.426;7.030;2023-05-20T12:55:06;100957.72;;;18.32;50.01
32081;BME280;18593;51.426;7.030;2023-05-20T12:57:38;100946.13;;;18.32;49.79
32081;BME280;18593;51.426;7.030;2023-05-20T13:00:07;100956.09;;;18.31;49.84